createdAt,value
2022-09-10T00:00:55.873Z,1.50
2022-09-10T00:01:56.108Z,1.50
2022-09-10T00:02:56.298Z,1.60
2022-09-10T00:03:56.437Z,1.60
2022-09-10T00:04:56.602Z,1.40
2022-09-10T00:05:56.764Z,1.40
2022-09-10T00:06:56.918Z,1.60
2022-09-10T00:07:57.111Z,1.60
2022-09-10T00:08:57.260Z,1.40
2022-09-10T00:09:57.469Z,1.40
2022-09-10T00:10:57.640Z,1.60
2022-09-10T00:11:57.818Z,1.50
2022-09-10T00:12:57.972Z,1.60
2022-09-10T00:13:58.131Z,1.50
2022-09-10T00:14:58.291Z,1.60
2022-09-10T00:15:58.483Z,1.80
2022-09-10T00:16:58.648Z,1.50
2022-09-10T00:17:58.796Z,1.50
2022-09-10T00:18:58.955Z,1.40
2022-09-10T00:19:59.113Z,1.60
2022-09-10T00:20:59.289Z,1.50
2022-09-10T00:21:59.443Z,1.70
2022-09-10T00:22:59.603Z,1.50
2022-09-10T00:23:59.805Z,1.60
2022-09-10T00:24:59.964Z,1.50
2022-09-10T00:26:00.145Z,1.60
2022-09-10T00:27:00.301Z,1.40
2022-09-10T00:28:00.496Z,1.60
2022-09-10T00:29:00.656Z,1.50
2022-09-10T00:30:00.826Z,1.50
2022-09-10T00:31:01.055Z,1.50
2022-09-10T00:32:01.167Z,1.50
2022-09-10T00:33:01.337Z,1.50
2022-09-10T00:34:01.502Z,1.60
2022-09-10T00:35:01.661Z,1.60
2022-09-10T00:36:01.827Z,1.70
2022-09-10T00:37:01.990Z,1.50
2022-09-10T00:38:02.153Z,1.70
2022-09-10T00:39:02.310Z,1.40
2022-09-10T00:40:02.575Z,1.50
2022-09-10T00:41:02.720Z,1.60
2022-09-10T00:42:02.841Z,1.40
2022-09-10T00:43:03.000Z,1.90
2022-09-10T00:44:03.155Z,1.60
2022-09-10T00:45:03.360Z,1.50
2022-09-10T00:46:03.577Z,1.60
2022-09-10T00:47:03.696Z,1.80
2022-09-10T00:48:03.852Z,1.50
2022-09-10T00:49:04.045Z,1.30
2022-09-10T00:50:04.204Z,1.50
2022-09-10T00:51:04.375Z,1.60
2022-09-10T00:52:04.533Z,1.40
2022-09-10T00:53:04.731Z,1.70
2022-09-10T00:54:04.885Z,1.60
2022-09-10T00:55:05.095Z,1.70
2022-09-10T00:56:05.254Z,1.60
2022-09-10T00:57:05.445Z,1.60
2022-09-10T00:58:05.607Z,1.60
2022-09-10T00:59:05.767Z,1.50
2022-09-10T01:00:05.946Z,1.70
2022-09-10T01:01:06.163Z,1.50
2022-09-10T01:02:06.306Z,1.70
2022-09-10T01:03:06.432Z,1.70
2022-09-10T01:04:06.588Z,1.60
2022-09-10T01:05:06.774Z,1.60
2022-09-10T01:06:06.941Z,1.50
2022-09-10T01:07:07.099Z,1.60
2022-09-10T01:08:07.330Z,1.60
2022-09-10T01:09:07.451Z,1.90
2022-09-10T01:10:07.633Z,1.60
2022-09-10T01:11:07.792Z,1.70
2022-09-10T01:12:07.949Z,1.60
2022-09-10T01:13:08.112Z,1.80
2022-09-10T01:14:08.270Z,1.30
2022-09-10T01:15:08.463Z,1.70
2022-09-10T01:16:08.618Z,1.70
2022-09-10T01:17:08.762Z,1.40
2022-09-10T01:18:08.924Z,1.50
2022-09-10T01:19:09.084Z,1.60
2022-09-10T01:20:09.263Z,1.50
2022-09-10T01:21:09.424Z,1.50
2022-09-10T01:22:09.585Z,1.60
2022-09-10T01:23:11.060Z,1.50
2022-09-10T01:24:09.914Z,1.70
2022-09-10T01:25:10.106Z,1.70
2022-09-10T01:26:10.259Z,1.60
2022-09-10T01:27:10.456Z,1.60
2022-09-10T01:28:10.606Z,1.50
2022-09-10T01:29:10.798Z,1.80
2022-09-10T01:30:10.992Z,1.50
2022-09-10T01:31:11.176Z,1.70
2022-09-10T01:32:11.290Z,1.80
2022-09-10T01:33:11.449Z,1.70
2022-09-10T01:34:18.620Z,1.60
2022-09-10T01:35:11.789Z,1.70
2022-09-10T01:36:11.944Z,1.60
2022-09-10T01:37:12.104Z,1.70
2022-09-10T01:38:12.297Z,1.50
2022-09-10T01:39:12.476Z,1.70
2022-09-10T01:40:12.709Z,1.70
2022-09-10T01:41:12.805Z,1.70
2022-09-10T01:42:12.967Z,1.70
2022-09-10T01:43:13.136Z,1.40
2022-09-10T01:44:13.297Z,1.60
2022-09-10T01:45:13.459Z,1.80
2022-09-10T01:46:13.613Z,1.70
2022-09-10T01:47:13.787Z,1.60
2022-09-10T01:48:13.939Z,1.80
2022-09-10T01:49:14.109Z,1.60
2022-09-10T01:50:14.270Z,1.60
2022-09-10T01:51:14.429Z,1.70
2022-09-10T01:52:14.620Z,1.60
2022-09-10T01:53:14.772Z,1.80
2022-09-10T01:54:14.961Z,1.60
2022-09-10T01:55:15.120Z,1.80
2022-09-10T01:56:15.280Z,1.70
2022-09-10T01:57:15.460Z,1.80
2022-09-10T01:58:15.615Z,1.70
2022-09-10T01:59:15.812Z,1.60
2022-09-10T02:00:15.992Z,1.60
2022-09-10T02:01:16.219Z,1.70
2022-09-10T02:02:16.347Z,1.80
2022-09-10T02:03:16.497Z,1.90
2022-09-10T02:04:16.673Z,1.70
2022-09-10T02:05:16.834Z,1.80
2022-09-10T02:06:16.990Z,1.70
2022-09-10T02:07:17.153Z,1.70
2022-09-10T02:08:17.335Z,1.70
2022-09-10T02:09:17.495Z,1.50
2022-09-10T02:10:17.658Z,1.60
2022-09-10T02:11:17.831Z,1.40
2022-09-10T02:12:17.975Z,1.70
2022-09-10T02:13:18.178Z,1.60
2022-09-10T02:14:18.356Z,1.70
2022-09-10T02:15:18.517Z,1.80
2022-09-10T02:16:18.684Z,1.70
2022-09-10T02:17:18.866Z,1.60
2022-09-10T02:18:19.037Z,1.70
2022-09-10T02:19:19.197Z,1.90
2022-09-10T02:20:19.357Z,1.90
2022-09-10T02:21:19.550Z,1.70
2022-09-10T02:22:19.708Z,1.60
2022-09-10T02:23:19.885Z,1.60
2022-09-10T02:24:20.043Z,1.70
2022-09-10T02:25:20.224Z,1.80
2022-09-10T02:26:20.376Z,1.90
2022-09-10T02:27:20.535Z,1.60
2022-09-10T02:28:20.711Z,1.60
2022-09-10T02:29:20.881Z,1.60
2022-09-10T02:30:21.039Z,1.70
2022-09-10T02:31:21.264Z,1.70
2022-09-10T02:32:21.362Z,1.80
2022-09-10T02:33:21.527Z,1.80
2022-09-10T02:34:21.683Z,1.50
2022-09-10T02:35:21.849Z,1.80
2022-09-10T02:36:22.005Z,1.90
2022-09-10T02:37:22.203Z,1.70
2022-09-10T02:38:22.365Z,1.60
2022-09-10T02:39:22.523Z,1.80
2022-09-10T02:40:22.685Z,1.70
2022-09-10T02:41:22.846Z,1.70
2022-09-10T02:42:23.014Z,1.90
2022-09-10T02:43:23.178Z,1.80
2022-09-10T02:44:23.336Z,1.70
2022-09-10T02:45:23.583Z,1.70
2022-09-10T02:46:23.657Z,2.00
2022-09-10T02:47:23.836Z,1.80
2022-09-10T02:48:23.997Z,1.80
2022-09-10T02:49:24.167Z,1.70
2022-09-10T02:50:24.353Z,1.80
2022-09-10T02:51:24.518Z,1.90
2022-09-10T02:52:24.670Z,1.80
2022-09-10T02:53:24.834Z,1.80
2022-09-10T02:54:25.009Z,1.80
2022-09-10T02:55:25.170Z,1.80
2022-09-10T02:56:25.332Z,1.70
2022-09-10T02:57:25.501Z,1.80
2022-09-10T02:58:25.656Z,1.80
2022-09-10T02:59:25.831Z,1.80
2022-09-10T03:00:25.992Z,1.80
2022-09-10T03:01:26.177Z,1.80
2022-09-10T03:02:26.310Z,1.90
2022-09-10T03:03:26.480Z,1.70
2022-09-10T03:04:26.652Z,2.10
2022-09-10T03:05:26.925Z,1.50
2022-09-10T03:06:26.984Z,1.70
2022-09-10T03:07:27.143Z,1.80
2022-09-10T03:08:27.322Z,2.00
2022-09-10T03:09:27.523Z,1.90
2022-09-10T03:10:27.675Z,1.80
2022-09-10T03:11:27.892Z,1.70
2022-09-10T03:12:28.033Z,1.80
2022-09-10T03:13:28.235Z,1.70
2022-09-10T03:14:28.414Z,2.00
2022-09-10T03:15:28.570Z,1.70
2022-09-10T03:16:28.791Z,1.90
2022-09-10T03:17:28.896Z,2.00
2022-09-10T03:18:29.046Z,1.80
2022-09-10T03:19:29.227Z,1.60
2022-09-10T03:20:29.377Z,1.90
2022-09-10T03:21:29.572Z,1.80
2022-09-10T03:22:29.729Z,1.70
2022-09-10T03:23:29.888Z,1.80
2022-09-10T03:24:30.059Z,1.80
2022-09-10T03:25:30.237Z,1.70
2022-09-10T03:26:30.395Z,1.90
2022-09-10T03:27:30.550Z,1.60
2022-09-10T03:28:30.793Z,1.70
2022-09-10T03:29:30.903Z,1.90
2022-09-10T03:30:31.054Z,1.80
2022-09-10T03:31:31.297Z,1.80
2022-09-10T03:32:31.411Z,1.90
2022-09-10T03:33:31.607Z,1.90
2022-09-10T03:34:31.772Z,1.80
2022-09-10T03:35:31.946Z,1.70
2022-09-10T03:36:32.104Z,1.70
2022-09-10T03:37:32.263Z,1.70
2022-09-10T03:38:32.426Z,1.90
2022-09-10T03:39:32.644Z,1.80
2022-09-10T03:40:32.774Z,1.80
2022-09-10T03:41:32.943Z,1.70
2022-09-10T03:42:33.105Z,1.70
2022-09-10T03:43:33.275Z,1.70
2022-09-10T03:44:33.437Z,1.70
2022-09-10T03:45:33.624Z,2.00
2022-09-10T03:46:33.763Z,1.60
2022-09-10T03:47:33.953Z,1.70
2022-09-10T03:48:34.109Z,1.80
2022-09-10T03:49:34.300Z,1.80
2022-09-10T03:50:34.475Z,2.00
2022-09-10T03:51:34.646Z,1.90
2022-09-10T03:52:34.797Z,1.90
2022-09-10T03:53:34.961Z,1.90
2022-09-10T03:54:35.120Z,1.90
2022-09-10T03:55:35.309Z,1.70
2022-09-10T03:56:35.469Z,1.90
2022-09-10T03:57:35.650Z,1.80
2022-09-10T03:58:35.943Z,1.90
2022-09-10T03:59:36.040Z,1.70
2022-09-10T04:00:36.218Z,2.10
2022-09-10T04:01:36.381Z,1.90
2022-09-10T04:02:36.542Z,2.00
2022-09-10T04:03:36.729Z,1.70
2022-09-10T04:04:36.885Z,1.90
2022-09-10T04:05:38.582Z,1.90
2022-09-10T04:06:37.212Z,1.80
2022-09-10T04:07:37.411Z,1.70
2022-09-10T04:08:37.574Z,1.70
2022-09-10T04:09:37.734Z,2.10
2022-09-10T04:10:37.893Z,2.20
2022-09-10T04:11:38.069Z,1.90
2022-09-10T04:12:38.225Z,2.00
2022-09-10T04:13:38.419Z,1.80
2022-09-10T04:14:38.575Z,2.00
2022-09-10T04:15:38.765Z,2.00
2022-09-10T04:16:38.960Z,1.70
2022-09-10T04:17:39.096Z,1.80
2022-09-10T04:18:39.334Z,1.90
2022-09-10T04:19:39.436Z,1.80
2022-09-10T04:20:39.616Z,1.80
2022-09-10T04:21:39.786Z,1.70
2022-09-10T04:22:39.946Z,1.80
2022-09-10T04:23:40.107Z,1.80
2022-09-10T04:24:40.266Z,1.80
2022-09-10T04:25:40.430Z,1.80
2022-09-10T04:26:40.609Z,1.80
2022-09-10T04:27:40.777Z,1.80
2022-09-10T04:28:40.929Z,2.00
2022-09-10T04:29:41.096Z,1.80
2022-09-10T04:30:41.249Z,2.00
2022-09-10T04:31:41.479Z,1.90
2022-09-10T04:32:41.621Z,1.70
2022-09-10T04:33:41.781Z,1.70
2022-09-10T04:34:41.943Z,1.80
2022-09-10T04:35:42.105Z,2.00
2022-09-10T04:36:42.285Z,1.80
2022-09-10T04:37:42.432Z,1.70
2022-09-10T04:38:42.613Z,1.80
2022-09-10T04:39:42.817Z,1.90
2022-09-10T04:40:42.964Z,2.00
2022-09-10T04:41:43.148Z,2.10
2022-09-10T04:42:43.293Z,1.90
2022-09-10T04:43:43.465Z,1.90
2022-09-10T04:44:43.649Z,1.80
2022-09-10T04:45:43.876Z,2.00
2022-09-10T04:46:44.015Z,2.00
2022-09-10T04:47:44.156Z,1.90
2022-09-10T04:48:44.336Z,1.90
2022-09-10T04:49:44.516Z,2.10
2022-09-10T04:51:05.338Z,1.90
2022-09-10T04:51:45.876Z,1.90
2022-09-10T04:52:45.036Z,1.80
2022-09-10T04:53:45.207Z,1.90
2022-09-10T04:54:45.388Z,2.10
2022-09-10T04:55:45.577Z,1.70
2022-09-10T04:56:45.759Z,2.20
2022-09-10T04:57:45.948Z,2.00
2022-09-10T04:58:46.572Z,2.00
2022-09-10T04:59:46.261Z,1.90
2022-09-10T05:00:46.473Z,1.70
2022-09-10T05:01:46.610Z,1.80
2022-09-10T05:02:46.779Z,2.00
2022-09-10T05:03:46.952Z,1.70
2022-09-10T05:04:47.140Z,1.90
2022-09-10T05:05:47.333Z,2.00
2022-09-10T05:06:47.521Z,1.70
2022-09-10T05:07:47.671Z,1.80
2022-09-10T05:08:47.845Z,2.00
2022-09-10T05:09:48.013Z,1.80
2022-09-10T05:10:48.203Z,2.00
2022-09-10T05:11:48.392Z,2.00
2022-09-10T05:12:48.576Z,2.30
2022-09-10T05:13:48.755Z,1.90
2022-09-10T05:14:48.934Z,2.10
2022-09-10T05:15:49.114Z,2.00
2022-09-10T05:16:49.354Z,2.10
2022-09-10T05:17:49.475Z,2.20
2022-09-10T05:18:49.660Z,2.00
2022-09-10T05:19:49.835Z,2.10
2022-09-10T05:20:50.017Z,2.30
2022-09-10T05:21:50.217Z,2.30
2022-09-10T05:22:50.361Z,2.10
2022-09-10T05:23:50.535Z,2.40
2022-09-10T05:24:50.717Z,2.20
2022-09-10T05:25:50.898Z,2.60
2022-09-10T05:26:51.101Z,2.70
2022-09-10T05:27:51.248Z,2.40
2022-09-10T05:28:51.420Z,2.60
2022-09-10T05:29:51.598Z,2.60
2022-09-10T05:30:52.088Z,2.40
2022-09-10T05:31:52.055Z,2.40
2022-09-10T05:32:52.129Z,2.60
2022-09-10T05:33:52.311Z,2.40
2022-09-10T05:34:52.495Z,2.50
2022-09-10T05:35:52.686Z,2.60
2022-09-10T05:36:52.890Z,2.40
2022-09-10T05:37:53.031Z,2.50
2022-09-10T05:38:53.216Z,2.70
2022-09-10T05:39:53.456Z,2.50
2022-09-10T05:40:53.576Z,2.30
2022-09-10T05:41:53.773Z,2.10
2022-09-10T05:42:53.943Z,2.00
2022-09-10T05:43:54.128Z,2.30
2022-09-10T05:44:54.320Z,2.10
2022-09-10T05:45:54.542Z,2.40
2022-09-10T05:46:54.645Z,2.30
2022-09-10T05:47:54.794Z,2.50
2022-09-10T05:48:54.989Z,2.30
2022-09-10T05:49:55.182Z,2.30
2022-09-10T05:50:55.335Z,2.10
2022-09-10T05:51:55.506Z,2.20
2022-09-10T05:52:55.675Z,2.20
2022-09-10T05:53:55.825Z,2.10
2022-09-10T05:54:56.030Z,2.10
2022-09-10T05:55:56.197Z,2.20
2022-09-10T05:56:56.402Z,2.20
2022-09-10T05:57:56.567Z,2.00
2022-09-10T05:58:56.747Z,2.20
2022-09-10T05:59:56.942Z,2.20
2022-09-10T06:00:57.123Z,2.40
2022-09-10T06:01:57.373Z,2.10
2022-09-10T06:02:57.615Z,2.00
2022-09-10T06:03:57.658Z,2.00
2022-09-10T06:04:57.850Z,2.10
2022-09-10T06:05:58.009Z,2.10
2022-09-10T06:06:58.192Z,2.00
2022-09-10T06:07:58.363Z,1.90
2022-09-10T06:08:58.531Z,2.40
2022-09-10T06:09:58.701Z,1.90
2022-09-10T06:10:58.851Z,1.80
2022-09-10T06:11:59.076Z,13.70
2022-09-10T06:12:59.222Z,2.70
2022-09-10T06:13:59.413Z,3.20
2022-09-10T06:14:59.614Z,2.60
2022-09-10T06:15:59.806Z,2.20
2022-09-10T06:16:59.978Z,2.30
2022-09-10T06:18:00.154Z,2.40
2022-09-10T06:19:00.324Z,2.40
2022-09-10T06:20:00.474Z,2.60
2022-09-10T06:21:00.676Z,2.30
2022-09-10T06:22:00.845Z,2.20
2022-09-10T06:23:01.045Z,2.50
2022-09-10T06:24:01.215Z,2.40
2022-09-10T06:25:01.409Z,2.30
2022-09-10T06:26:01.556Z,2.20
2022-09-10T06:27:01.755Z,2.00
2022-09-10T06:28:01.917Z,2.10
2022-09-10T06:29:02.088Z,2.10
2022-09-10T06:30:02.243Z,2.20
2022-09-10T06:31:02.494Z,2.20
2022-09-10T06:32:02.598Z,1.90
2022-09-10T06:33:02.775Z,2.30
2022-09-10T06:34:02.911Z,2.10
2022-09-10T06:35:03.114Z,2.00
2022-09-10T06:36:03.293Z,2.10
2022-09-10T06:37:03.473Z,2.00
2022-09-10T06:38:03.670Z,2.20
2022-09-10T06:39:03.856Z,1.90
2022-09-10T06:40:04.053Z,1.90
2022-09-10T06:41:04.195Z,2.30
2022-09-10T06:42:04.391Z,2.20
2022-09-10T06:43:04.543Z,2.30
2022-09-10T06:44:04.700Z,2.30
2022-09-10T06:45:04.890Z,2.80
2022-09-10T06:46:05.094Z,3.20
2022-09-10T06:47:46.298Z,3.10
2022-09-10T06:48:37.780Z,2.80
2022-09-10T06:49:06.548Z,3.10
2022-09-10T06:50:05.705Z,3.10
2022-09-10T06:51:05.864Z,2.70
2022-09-10T06:52:06.033Z,2.70
2022-09-10T06:53:06.177Z,2.90
2022-09-10T06:54:06.355Z,3.30
2022-09-10T06:55:06.540Z,2.40
2022-09-10T06:56:06.731Z,2.40
2022-09-10T06:57:06.911Z,2.50
2022-09-10T06:58:07.066Z,2.50
2022-09-10T06:59:07.261Z,2.60
2022-09-10T07:00:07.414Z,2.50
2022-09-10T07:01:11.100Z,2.50
2022-09-10T07:02:07.808Z,2.10
2022-09-10T07:03:07.944Z,2.40
2022-09-10T07:04:08.089Z,2.70
2022-09-10T07:05:08.279Z,2.30
2022-09-10T07:06:08.455Z,2.10
2022-09-10T07:07:08.589Z,1.90
2022-09-10T07:08:08.772Z,2.20
2022-09-10T07:09:08.950Z,2.30
2022-09-10T07:10:09.101Z,1.70
2022-09-10T07:11:09.304Z,1.80
2022-09-10T07:12:09.452Z,1.50
2022-09-10T07:13:09.661Z,1.60
2022-09-10T07:14:09.792Z,1.50
2022-09-10T07:15:09.981Z,1.70
2022-09-10T07:16:10.226Z,1.80
2022-09-10T07:17:10.332Z,1.40
2022-09-10T07:18:10.523Z,1.60
2022-09-10T07:19:10.693Z,1.50
2022-09-10T07:20:10.833Z,1.90
2022-09-10T07:21:11.015Z,1.70
2022-09-10T07:22:11.207Z,1.60
2022-09-10T07:23:12.799Z,2.10
2022-09-10T07:24:11.564Z,1.70
2022-09-10T07:25:11.714Z,1.70
2022-09-10T07:26:11.875Z,1.60
2022-09-10T07:27:12.046Z,1.50
2022-09-10T07:28:12.237Z,1.40
2022-09-10T07:29:12.439Z,1.60
2022-09-10T07:30:12.579Z,1.60
2022-09-10T07:31:12.803Z,1.60
2022-09-10T07:32:13.640Z,1.60
2022-09-10T07:33:13.107Z,1.60
2022-09-10T07:34:13.318Z,1.50
2022-09-10T07:35:13.464Z,1.80
2022-09-10T07:36:13.648Z,2.00
2022-09-10T07:37:13.838Z,1.80
2022-09-10T07:38:14.025Z,2.10
2022-09-10T07:39:14.221Z,2.50
2022-09-10T07:40:14.403Z,2.80
2022-09-10T07:41:14.549Z,2.70
2022-09-10T07:42:14.741Z,2.50
2022-09-10T07:43:14.921Z,2.40
2022-09-10T07:44:15.121Z,2.20
2022-09-10T07:45:15.292Z,2.10
2022-09-10T07:46:15.527Z,1.80
2022-09-10T07:47:15.642Z,2.00
2022-09-10T07:48:15.822Z,2.10
2022-09-10T07:49:16.033Z,1.80
2022-09-10T07:50:16.174Z,2.10
2022-09-10T07:51:16.324Z,1.70
2022-09-10T07:52:16.514Z,1.80
2022-09-10T07:53:16.704Z,1.40
2022-09-10T07:54:16.948Z,1.70
2022-09-10T07:55:17.074Z,1.50
2022-09-10T07:56:17.218Z,1.50
2022-09-10T07:57:17.381Z,1.50
2022-09-10T07:58:17.559Z,1.80
2022-09-10T07:59:17.769Z,1.60
2022-09-10T08:00:17.938Z,1.80
2022-09-10T08:01:18.113Z,1.50
2022-09-10T08:02:18.319Z,1.40
2022-09-10T08:03:18.476Z,1.90
2022-09-10T08:04:18.621Z,1.50
2022-09-10T08:05:18.781Z,1.40
2022-09-10T08:06:18.970Z,1.60
2022-09-10T08:07:19.131Z,1.40
2022-09-10T08:08:19.288Z,1.50
2022-09-10T08:09:19.470Z,1.60
2022-09-10T08:10:19.694Z,1.10
2022-09-10T08:11:19.820Z,1.30
2022-09-10T08:12:19.991Z,1.40
2022-09-10T08:13:20.184Z,1.30
2022-09-10T08:14:20.391Z,1.40
2022-09-10T08:15:20.502Z,1.40
2022-09-10T08:16:20.665Z,1.20
2022-09-10T08:17:20.852Z,1.30
2022-09-10T08:18:21.016Z,1.20
2022-09-10T08:19:21.203Z,1.60
2022-09-10T08:20:21.374Z,2.20
2022-09-10T08:21:21.562Z,1.50
2022-09-10T08:22:21.746Z,1.20
2022-09-10T08:23:21.942Z,1.30
2022-09-10T08:24:22.070Z,1.40
2022-09-10T08:25:22.246Z,1.30
2022-09-10T08:26:22.426Z,1.30
2022-09-10T08:27:22.616Z,1.20
2022-09-10T08:28:25.458Z,1.20
2022-09-10T08:29:22.948Z,1.50
2022-09-10T08:30:23.127Z,1.40
2022-09-10T08:31:23.350Z,1.40
2022-09-10T08:32:23.504Z,1.20
2022-09-10T08:33:23.682Z,1.10
2022-09-10T08:34:23.819Z,1.40
2022-09-10T08:35:23.979Z,1.20
2022-09-10T08:36:24.142Z,1.40
2022-09-10T08:37:24.302Z,1.20
2022-09-10T08:38:24.470Z,1.30
2022-09-10T08:39:24.637Z,1.50
2022-09-10T08:40:24.799Z,1.50
2022-09-10T08:41:24.951Z,1.30
2022-09-10T08:42:25.123Z,1.40
2022-09-10T08:43:25.292Z,1.40
2022-09-10T08:44:25.454Z,1.60
2022-09-10T08:45:25.614Z,1.40
2022-09-10T08:46:25.773Z,1.20
2022-09-10T08:47:25.953Z,1.20
2022-09-10T08:48:26.100Z,1.40
2022-09-10T08:49:26.263Z,1.30
2022-09-10T08:50:26.422Z,1.20
2022-09-10T08:51:26.607Z,1.40
2022-09-10T08:52:26.815Z,1.50
2022-09-10T08:53:26.977Z,1.30
2022-09-10T08:54:27.124Z,1.40
2022-09-10T08:55:27.297Z,1.40
2022-09-10T08:56:27.486Z,1.20
2022-09-10T08:57:27.685Z,1.30
2022-09-10T08:58:27.852Z,1.40
2022-09-10T08:59:28.038Z,1.20
2022-09-10T09:00:28.228Z,1.30
2022-09-10T09:01:28.427Z,1.10
2022-09-10T09:02:47.969Z,1.50
2022-09-10T09:03:29.757Z,1.20
2022-09-10T09:04:28.909Z,1.30
2022-09-10T09:05:29.110Z,1.20
2022-09-10T09:06:29.260Z,1.50
2022-09-10T09:07:29.440Z,1.10
2022-09-10T09:08:29.660Z,1.10
2022-09-10T09:09:29.829Z,1.40
2022-09-10T09:10:29.979Z,1.30
2022-09-10T09:11:30.134Z,1.30
2022-09-10T09:12:30.428Z,1.10
2022-09-10T09:13:30.518Z,1.10
2022-09-10T09:14:30.684Z,1.40
2022-09-10T09:15:30.959Z,1.30
2022-09-10T09:16:31.053Z,1.10
2022-09-10T09:17:31.193Z,1.20
2022-09-10T09:18:31.439Z,1.10
2022-09-10T09:19:31.546Z,1.00
2022-09-10T09:20:31.745Z,1.10
2022-09-10T09:21:31.894Z,1.10
2022-09-10T09:22:32.096Z,0.90
2022-09-10T09:23:32.236Z,1.10
2022-09-10T09:24:32.426Z,1.10
2022-09-10T09:25:32.584Z,1.10
2022-09-10T09:26:32.767Z,1.30
2022-09-10T09:27:32.967Z,1.10
2022-09-10T09:28:33.124Z,1.20
2022-09-10T09:29:33.308Z,1.10
2022-09-10T09:30:33.501Z,1.20
2022-09-10T09:31:33.730Z,1.10
2022-09-10T09:32:33.879Z,1.30
2022-09-10T09:33:34.062Z,1.20
2022-09-10T09:34:34.239Z,1.20
2022-09-10T09:35:34.431Z,1.20
2022-09-10T09:36:34.628Z,1.20
2022-09-10T09:37:34.809Z,1.00
2022-09-10T09:38:34.961Z,1.00
2022-09-10T09:39:35.125Z,1.10
2022-09-10T09:40:35.292Z,1.20
2022-09-10T09:41:35.470Z,1.20
2022-09-10T09:42:35.674Z,1.10
2022-09-10T09:43:35.813Z,1.10
2022-09-10T09:44:36.006Z,1.10
2022-09-10T09:45:36.258Z,1.10
2022-09-10T09:46:36.376Z,1.20
2022-09-10T09:47:36.575Z,1.20
2022-09-10T09:48:36.787Z,1.10
2022-09-10T09:49:36.896Z,1.00
2022-09-10T09:50:37.076Z,1.20
2022-09-10T09:51:37.273Z,1.10
2022-09-10T09:52:37.468Z,1.30
2022-09-10T09:53:37.607Z,1.10
2022-09-10T09:55:10.555Z,1.10
2022-09-10T09:55:38.960Z,1.20
2022-09-10T09:56:38.142Z,1.10
2022-09-10T09:57:38.290Z,0.90
2022-09-10T09:58:38.532Z,1.00
2022-09-10T09:59:38.659Z,1.10
2022-09-10T10:00:38.849Z,0.90
2022-09-10T10:01:39.091Z,1.00
2022-09-10T10:02:39.191Z,1.10
2022-09-10T10:03:39.335Z,0.90
2022-09-10T10:04:42.217Z,1.00
2022-09-10T10:05:39.710Z,0.90
2022-09-10T10:06:39.932Z,0.90
2022-09-10T10:07:40.072Z,1.00
2022-09-10T10:08:40.315Z,0.90
2022-09-10T10:09:40.425Z,1.00
2022-09-10T10:10:40.584Z,1.00
2022-09-10T10:11:40.782Z,1.00
2022-09-10T10:12:40.923Z,1.10
2022-09-10T10:13:41.110Z,1.10
2022-09-10T10:14:41.308Z,1.20
2022-09-10T10:15:41.589Z,1.00
2022-09-10T10:16:41.655Z,1.00
2022-09-10T10:17:41.801Z,0.90
2022-09-10T10:18:41.986Z,0.90
2022-09-10T10:19:42.168Z,0.90
2022-09-10T10:20:42.375Z,1.00
2022-09-10T10:21:42.512Z,1.10
2022-09-10T10:22:42.688Z,0.90
2022-09-10T10:23:42.875Z,1.00
2022-09-10T10:24:45.309Z,1.10
2022-09-10T10:25:43.230Z,1.00
2022-09-10T10:26:43.382Z,0.80
2022-09-10T10:27:43.540Z,1.20
2022-09-10T10:28:43.734Z,0.60
2022-09-10T10:29:43.953Z,0.90
2022-09-10T10:30:44.189Z,0.90
2022-09-10T10:31:44.235Z,1.10
2022-09-10T10:32:44.393Z,1.00
2022-09-10T10:33:44.565Z,1.00
2022-09-10T10:34:44.774Z,1.00
2022-09-10T10:35:44.914Z,1.10
2022-09-10T10:36:45.106Z,1.10
2022-09-10T10:37:45.256Z,1.00
2022-09-10T10:38:45.422Z,1.20
2022-09-10T10:39:45.635Z,1.70
2022-09-10T10:40:45.746Z,1.60
2022-09-10T10:41:45.907Z,1.60
2022-09-10T10:42:46.095Z,1.20
2022-09-10T10:43:46.297Z,1.00
2022-09-10T10:44:46.487Z,0.90
2022-09-10T10:45:46.692Z,1.20
2022-09-10T10:46:46.892Z,1.10
2022-09-10T10:47:47.031Z,1.10
2022-09-10T10:48:47.179Z,0.80
2022-09-10T10:49:47.370Z,0.90
2022-09-10T10:50:52.219Z,1.20
2022-09-10T10:51:48.720Z,1.00
2022-09-10T10:52:47.885Z,1.00
2022-09-10T10:53:48.061Z,1.00
2022-09-10T10:54:48.241Z,1.00
2022-09-10T10:55:48.402Z,1.10
2022-09-10T10:56:48.562Z,0.90
2022-09-10T10:57:48.753Z,1.00
2022-09-10T10:58:53.478Z,1.00
2022-09-10T10:59:50.092Z,0.90
2022-09-10T11:00:49.254Z,1.00
2022-09-10T11:01:49.468Z,0.90
2022-09-10T11:02:49.605Z,0.90
2022-09-10T11:03:49.766Z,1.00
2022-09-10T11:04:49.945Z,0.90
2022-09-10T11:05:50.096Z,1.00
2022-09-10T11:06:50.255Z,0.90
2022-09-10T11:07:50.424Z,0.90
2022-09-10T11:08:50.597Z,0.90
2022-09-10T11:09:50.753Z,1.00
2022-09-10T11:10:50.918Z,0.90
2022-09-10T11:11:51.102Z,0.80
2022-09-10T11:12:51.288Z,0.80
2022-09-10T11:13:51.491Z,0.90
2022-09-10T11:14:51.672Z,0.90
2022-09-10T11:15:51.929Z,1.00
2022-09-10T11:16:56.542Z,0.80
2022-09-10T11:17:53.220Z,1.00
2022-09-10T11:18:52.423Z,1.00
2022-09-10T11:20:05.405Z,0.90
2022-09-10T11:20:53.752Z,0.90
2022-09-10T11:21:52.943Z,0.90
2022-09-10T11:22:53.103Z,0.90
2022-09-10T11:23:53.292Z,1.00
2022-09-10T11:24:53.433Z,0.90
2022-09-10T11:25:53.613Z,0.90
2022-09-10T11:26:53.803Z,0.90
2022-09-10T11:27:54.003Z,1.00
2022-09-10T11:28:54.145Z,1.30
2022-09-10T11:29:54.335Z,0.90
2022-09-10T11:30:54.695Z,0.90
2022-09-10T11:31:54.707Z,0.90
2022-09-10T11:32:54.906Z,1.10
2022-09-10T11:33:55.090Z,1.00
2022-09-10T11:34:55.270Z,11.70
2022-09-10T11:35:55.441Z,15.10
2022-09-10T11:36:55.607Z,18.00
2022-09-10T11:37:55.769Z,11.20
2022-09-10T11:38:55.968Z,9.20
2022-09-10T11:39:56.178Z,7.10
2022-09-10T11:40:56.293Z,6.00
2022-09-10T11:41:56.479Z,8.40
2022-09-10T11:42:56.671Z,5.60
2022-09-10T11:43:56.868Z,6.50
2022-09-10T11:44:57.031Z,4.40
2022-09-10T11:45:57.280Z,4.50
2022-09-10T11:46:57.400Z,3.40
2022-09-10T11:47:57.596Z,7.80
2022-09-10T11:48:57.797Z,4.50
2022-09-10T11:49:57.952Z,6.10
2022-09-10T11:50:58.142Z,5.90
2022-09-10T11:51:58.313Z,9.10
2022-09-10T11:52:58.495Z,8.10
2022-09-10T11:53:58.699Z,7.10
2022-09-10T11:54:58.864Z,6.90
2022-09-10T11:55:59.046Z,5.90
2022-09-10T11:56:59.225Z,6.80
2022-09-10T11:57:59.407Z,6.40
2022-09-10T11:58:59.606Z,6.10
2022-09-10T11:59:59.757Z,5.70
2022-09-10T12:00:59.955Z,5.30
2022-09-10T12:02:00.195Z,4.70
2022-09-10T12:03:00.313Z,4.40
2022-09-10T12:04:00.530Z,4.70
2022-09-10T12:05:00.660Z,3.90
2022-09-10T12:06:00.848Z,4.70
2022-09-10T12:07:01.054Z,4.10
2022-09-10T12:08:01.210Z,4.70
2022-09-10T12:09:01.411Z,4.60
2022-09-10T12:10:01.571Z,4.50
2022-09-10T12:11:01.761Z,3.80
2022-09-10T12:12:01.905Z,3.90
2022-09-10T12:13:02.091Z,3.80
2022-09-10T12:14:02.292Z,3.60
2022-09-10T12:15:02.425Z,3.70
2022-09-10T12:16:02.681Z,2.80
2022-09-10T12:17:02.786Z,3.00
2022-09-10T12:18:02.936Z,2.80
2022-09-10T12:19:03.114Z,3.00
2022-09-10T12:20:03.443Z,2.70
2022-09-10T12:21:03.453Z,3.20
2022-09-10T12:22:03.633Z,3.10
2022-09-10T12:23:03.815Z,3.10
2022-09-10T12:24:04.005Z,2.40
2022-09-10T12:25:04.167Z,3.00
2022-09-10T12:26:04.345Z,2.60
2022-09-10T12:27:04.518Z,2.70
2022-09-10T12:28:04.667Z,3.00
2022-09-10T12:29:04.862Z,2.50
2022-09-10T12:30:05.041Z,2.30
2022-09-10T12:31:05.245Z,2.70
2022-09-10T12:32:05.359Z,2.50
2022-09-10T12:33:05.555Z,2.50
2022-09-10T12:34:05.700Z,2.30
2022-09-10T12:35:05.909Z,2.30
2022-09-10T12:36:06.050Z,2.70
2022-09-10T12:37:06.241Z,2.30
2022-09-10T12:38:06.433Z,2.10
2022-09-10T12:39:06.582Z,2.20
2022-09-10T12:40:08.997Z,2.00
2022-09-10T12:41:07.961Z,2.10
2022-09-10T12:42:07.145Z,2.10
2022-09-10T12:43:07.306Z,1.70
2022-09-10T12:44:07.474Z,1.80
2022-09-10T12:45:07.643Z,1.70
2022-09-10T12:46:07.818Z,2.00
2022-09-10T12:47:07.981Z,1.80
2022-09-10T12:48:08.148Z,1.80
2022-09-10T12:49:08.323Z,1.80
2022-09-10T12:50:08.495Z,1.90
2022-09-10T12:51:08.659Z,1.80
2022-09-10T12:52:08.827Z,1.80
2022-09-10T12:53:08.987Z,1.50
2022-09-10T12:54:09.138Z,1.60
2022-09-10T12:55:09.341Z,1.70
2022-09-10T12:56:11.743Z,1.60
2022-09-10T12:57:10.650Z,1.90
2022-09-10T12:58:09.817Z,1.80
2022-09-10T12:59:09.980Z,1.60
2022-09-10T13:00:10.150Z,1.60
2022-09-10T13:01:10.387Z,1.40
2022-09-10T13:02:10.539Z,1.60
2022-09-10T13:03:10.656Z,1.50
2022-09-10T13:04:10.819Z,1.60
2022-09-10T13:05:11.031Z,1.30
2022-09-10T13:06:11.165Z,1.50
2022-09-10T13:07:11.346Z,1.40
2022-09-10T13:08:11.540Z,1.20
2022-09-10T13:09:11.726Z,1.30
2022-09-10T13:10:11.914Z,1.10
2022-09-10T13:11:12.083Z,1.20
2022-09-10T13:12:12.243Z,1.10
2022-09-10T13:13:12.406Z,1.10
2022-09-10T13:14:12.567Z,1.10
2022-09-10T13:15:12.748Z,1.20
2022-09-10T13:16:12.935Z,1.00
2022-09-10T13:17:13.067Z,1.10
2022-09-10T13:18:13.236Z,1.20
2022-09-10T13:19:13.413Z,1.20
2022-09-10T13:20:13.569Z,1.00
2022-09-10T13:21:13.737Z,1.00